sensor_id;sensor_type;location;lat;lon;timestamp;P1;durP1;ratioP1;P2;durP2;ratioP2
65971;SDS011;52726;48.852;9.152;2022-11-20T00:00:23;17.27;;;5.43;;
65971;SDS011;52726;48.852;9.152;2022-11-20T00:02:48;7.35;;;4.72;;
65971;SDS011;52726;48.852;9.152;2022-11-20T00:05:14;17.50;;;5.95;;
65971;SDS011;52726;48.852;9.152;2022-11-20T00:07:39;19.23;;;5.60;;
65971;SDS011;52726;48.852;9.152;2022-11-20T00:10:05;8.90;;;5.70;;
65971;SDS011;52726;48.852;9.152;2022-11-20T00:12:31;28.27;;;5.13;;
65971;SDS011;52726;48.852;9.152;2022-11-20T00:14:56;19.45;;;5.90;;
65971;SDS011;52726;48.852;9.152;2022-11-20T00:17:21;9.02;;;5.25;;
65971;SDS011;52726;48.852;9.152;2022-11-20T00:19:47;23.17;;;6.20;;
65971;SDS011;52726;48.852;9.152;2022-11-20T00:22:12;15.82;;;5.82;;
65971;SDS011;52726;48.852;9.152;2022-11-20T00:24:37;9.85;;;5.80;;
65971;SDS011;52726;48.852;9.152;2022-11-20T00:27:03;13.00;;;5.63;;
65971;SDS011;52726;48.852;9.152;2022-11-20T00:29:28;22.50;;;6.05;;
65971;SDS011;52726;48.852;9.152;2022-11-20T00:31:54;8.43;;;5.30;;
65971;SDS011;52726;48.852;9.152;2022-11-20T00:34:19;13.02;;;6.35;;
65971;SDS011;52726;48.852;9.152;2022-11-20T00:36:44;14.10;;;5.93;;
65971;SDS011;52726;48.852;9.152;2022-11-20T00:39:10;18.48;;;6.00;;
65971;SDS011;52726;48.852;9.152;2022-11-20T00:41:35;10.65;;;5.97;;
65971;SDS011;52726;48.852;9.152;2022-11-20T00:44:00;10.18;;;5.88;;
65971;SDS011;52726;48.852;9.152;2022-11-20T00:46:26;11.02;;;5.70;;
65971;SDS011;52726;48.852;9.152;2022-11-20T00:48:52;11.73;;;5.97;;
65971;SDS011;52726;48.852;9.152;2022-11-20T00:51:19;41.95;;;6.13;;
65971;SDS011;52726;48.852;9.152;2022-11-20T00:53:46;12.27;;;6.18;;
65971;SDS011;52726;48.852;9.152;2022-11-20T00:56:13;26.50;;;6.40;;
65971;SDS011;52726;48.852;9.152;2022-11-20T00:58:41;18.92;;;6.30;;
65971;SDS011;52726;48.852;9.152;2022-11-20T01:01:08;10.98;;;5.85;;
65971;SDS011;52726;48.852;9.152;2022-11-20T01:03:39;10.85;;;5.57;;
65971;SDS011;52726;48.852;9.152;2022-11-20T01:06:10;13.63;;;5.95;;
65971;SDS011;52726;48.852;9.152;2022-11-20T01:08:40;11.60;;;6.32;;
65971;SDS011;52726;48.852;9.152;2022-11-20T01:11:07;18.10;;;5.78;;
65971;SDS011;52726;48.852;9.152;2022-11-20T01:13:34;13.10;;;6.35;;
65971;SDS011;52726;48.852;9.152;2022-11-20T01:16:16;14.68;;;5.47;;
65971;SDS011;52726;48.852;9.152;2022-11-20T01:18:54;20.08;;;5.40;;
65971;SDS011;52726;48.852;9.152;2022-11-20T01:21:22;30.52;;;5.35;;
65971;SDS011;52726;48.852;9.152;2022-11-20T01:23:50;38.92;;;6.35;;
65971;SDS011;52726;48.852;9.152;2022-11-20T01:26:17;10.57;;;4.93;;
65971;SDS011;52726;48.852;9.152;2022-11-20T01:28:47;16.88;;;5.40;;
65971;SDS011;52726;48.852;9.152;2022-11-20T01:31:14;9.30;;;5.20;;
65971;SDS011;52726;48.852;9.152;2022-11-20T01:33:40;10.95;;;5.43;;
65971;SDS011;52726;48.852;9.152;2022-11-20T01:36:06;11.20;;;6.07;;
65971;SDS011;52726;48.852;9.152;2022-11-20T01:38:32;8.70;;;4.88;;
65971;SDS011;52726;48.852;9.152;2022-11-20T01:40:58;11.50;;;6.00;;
65971;SDS011;52726;48.852;9.152;2022-11-20T01:43:23;10.50;;;5.60;;
65971;SDS011;52726;48.852;9.152;2022-11-20T01:46:01;10.02;;;6.13;;
65971;SDS011;52726;48.852;9.152;2022-11-20T01:48:51;8.70;;;5.18;;
65971;SDS011;52726;48.852;9.152;2022-11-20T01:51:29;11.68;;;4.90;;
65971;SDS011;52726;48.852;9.152;2022-11-20T01:54:03;6.75;;;4.82;;
65971;SDS011;52726;48.852;9.152;2022-11-20T01:56:33;8.18;;;4.53;;
65971;SDS011;52726;48.852;9.152;2022-11-20T01:59:03;9.87;;;5.67;;
65971;SDS011;52726;48.852;9.152;2022-11-20T02:01:32;7.72;;;4.97;;
65971;SDS011;52726;48.852;9.152;2022-11-20T02:03:58;10.00;;;5.28;;
65971;SDS011;52726;48.852;9.152;2022-11-20T02:06:29;10.48;;;5.32;;
65971;SDS011;52726;48.852;9.152;2022-11-20T02:08:57;8.15;;;5.40;;
65971;SDS011;52726;48.852;9.152;2022-11-20T02:11:23;13.27;;;4.97;;
65971;SDS011;52726;48.852;9.152;2022-11-20T02:13:48;8.48;;;5.25;;
65971;SDS011;52726;48.852;9.152;2022-11-20T02:16:16;8.43;;;4.90;;
65971;SDS011;52726;48.852;9.152;2022-11-20T02:18:45;9.63;;;5.57;;
65971;SDS011;52726;48.852;9.152;2022-11-20T02:24:15;11.20;;;4.68;;
65971;SDS011;52726;48.852;9.152;2022-11-20T02:29:37;10.70;;;6.20;;
65971;SDS011;52726;48.852;9.152;2022-11-20T02:32:05;11.85;;;5.75;;
65971;SDS011;52726;48.852;9.152;2022-11-20T02:34:31;7.97;;;4.40;;
65971;SDS011;52726;48.852;9.152;2022-11-20T02:36:57;13.70;;;4.70;;
65971;SDS011;52726;48.852;9.152;2022-11-20T02:39:25;8.60;;;4.15;;
65971;SDS011;52726;48.852;9.152;2022-11-20T02:41:55;5.97;;;4.00;;
65971;SDS011;52726;48.852;9.152;2022-11-20T02:44:21;8.93;;;4.03;;
65971;SDS011;52726;48.852;9.152;2022-11-20T02:46:47;7.15;;;3.85;;
65971;SDS011;52726;48.852;9.152;2022-11-20T02:49:12;7.05;;;3.50;;
65971;SDS011;52726;48.852;9.152;2022-11-20T02:51:37;6.43;;;2.97;;
65971;SDS011;52726;48.852;9.152;2022-11-20T02:54:03;7.15;;;4.00;;
65971;SDS011;52726;48.852;9.152;2022-11-20T02:56:29;6.30;;;3.55;;
65971;SDS011;52726;48.852;9.152;2022-11-20T02:58:55;5.50;;;3.10;;
65971;SDS011;52726;48.852;9.152;2022-11-20T03:01:20;4.53;;;3.38;;
65971;SDS011;52726;48.852;9.152;2022-11-20T03:03:46;8.43;;;2.78;;
65971;SDS011;52726;48.852;9.152;2022-11-20T03:06:13;3.70;;;2.40;;
65971;SDS011;52726;48.852;9.152;2022-11-20T03:08:39;7.00;;;3.08;;
65971;SDS011;52726;48.852;9.152;2022-11-20T03:11:05;5.97;;;2.85;;
65971;SDS011;52726;48.852;9.152;2022-11-20T03:13:32;6.15;;;2.47;;
65971;SDS011;52726;48.852;9.152;2022-11-20T03:15:58;3.97;;;2.30;;
65971;SDS011;52726;48.852;9.152;2022-11-20T03:18:29;5.82;;;2.00;;
65971;SDS011;52726;48.852;9.152;2022-11-20T03:20:56;2.53;;;2.33;;
65971;SDS011;52726;48.852;9.152;2022-11-20T03:23:23;4.00;;;2.78;;
65971;SDS011;52726;48.852;9.152;2022-11-20T03:25:48;4.68;;;2.58;;
65971;SDS011;52726;48.852;9.152;2022-11-20T03:28:14;2.95;;;2.25;;
65971;SDS011;52726;48.852;9.152;2022-11-20T03:30:39;5.28;;;2.35;;
65971;SDS011;52726;48.852;9.152;2022-11-20T03:33:04;4.22;;;2.40;;
65971;SDS011;52726;48.852;9.152;2022-11-20T03:35:30;3.20;;;2.03;;
65971;SDS011;52726;48.852;9.152;2022-11-20T03:37:55;7.82;;;2.40;;
65971;SDS011;52726;48.852;9.152;2022-11-20T03:40:22;2.25;;;2.00;;
65971;SDS011;52726;48.852;9.152;2022-11-20T03:42:47;3.28;;;1.83;;
65971;SDS011;52726;48.852;9.152;2022-11-20T03:45:13;5.85;;;2.30;;
65971;SDS011;52726;48.852;9.152;2022-11-20T03:47:40;6.13;;;1.80;;
65971;SDS011;52726;48.852;9.152;2022-11-20T03:50:06;2.30;;;2.10;;
65971;SDS011;52726;48.852;9.152;2022-11-20T03:52:32;6.10;;;1.60;;
65971;SDS011;52726;48.852;9.152;2022-11-20T03:54:57;4.70;;;2.45;;
65971;SDS011;52726;48.852;9.152;2022-11-20T03:57:23;5.63;;;2.63;;
65971;SDS011;52726;48.852;9.152;2022-11-20T03:59:48;5.38;;;2.03;;
65971;SDS011;52726;48.852;9.152;2022-11-20T04:02:13;1.70;;;1.60;;
65971;SDS011;52726;48.852;9.152;2022-11-20T04:04:38;3.65;;;2.50;;
65971;SDS011;52726;48.852;9.152;2022-11-20T04:07:04;4.07;;;2.20;;
65971;SDS011;52726;48.852;9.152;2022-11-20T04:09:29;4.93;;;2.47;;
65971;SDS011;52726;48.852;9.152;2022-11-20T04:11:54;2.55;;;1.83;;
65971;SDS011;52726;48.852;9.152;2022-11-20T04:14:20;1.77;;;1.67;;
65971;SDS011;52726;48.852;9.152;2022-11-20T04:16:45;3.08;;;1.85;;
65971;SDS011;52726;48.852;9.152;2022-11-20T04:19:11;4.93;;;2.10;;
65971;SDS011;52726;48.852;9.152;2022-11-20T04:21:39;2.60;;;1.98;;
65971;SDS011;52726;48.852;9.152;2022-11-20T04:24:05;4.90;;;2.40;;
65971;SDS011;52726;48.852;9.152;2022-11-20T04:26:31;2.67;;;2.15;;
65971;SDS011;52726;48.852;9.152;2022-11-20T04:28:57;2.63;;;1.80;;
65971;SDS011;52726;48.852;9.152;2022-11-20T04:31:24;3.78;;;2.40;;
65971;SDS011;52726;48.852;9.152;2022-11-20T04:33:53;4.70;;;1.92;;
65971;SDS011;52726;48.852;9.152;2022-11-20T04:36:20;2.20;;;1.98;;
65971;SDS011;52726;48.852;9.152;2022-11-20T04:38:54;4.03;;;1.88;;
65971;SDS011;52726;48.852;9.152;2022-11-20T04:41:24;5.45;;;2.25;;
65971;SDS011;52726;48.852;9.152;2022-11-20T04:43:53;2.35;;;1.98;;
65971;SDS011;52726;48.852;9.152;2022-11-20T04:46:24;3.15;;;2.13;;
65971;SDS011;52726;48.852;9.152;2022-11-20T04:48:50;2.95;;;2.25;;
65971;SDS011;52726;48.852;9.152;2022-11-20T04:51:15;3.83;;;1.80;;
65971;SDS011;52726;48.852;9.152;2022-11-20T04:53:41;2.17;;;1.88;;
65971;SDS011;52726;48.852;9.152;2022-11-20T04:56:07;1.65;;;1.55;;
65971;SDS011;52726;48.852;9.152;2022-11-20T04:58:34;3.50;;;2.15;;
65971;SDS011;52726;48.852;9.152;2022-11-20T05:01:03;1.75;;;1.65;;
65971;SDS011;52726;48.852;9.152;2022-11-20T05:03:30;10.25;;;2.13;;
65971;SDS011;52726;48.852;9.152;2022-11-20T05:05:55;1.80;;;1.65;;
65971;SDS011;52726;48.852;9.152;2022-11-20T05:08:21;3.00;;;1.80;;
65971;SDS011;52726;48.852;9.152;2022-11-20T05:10:46;4.00;;;1.80;;
65971;SDS011;52726;48.852;9.152;2022-11-20T05:13:12;2.17;;;1.90;;
65971;SDS011;52726;48.852;9.152;2022-11-20T05:15:37;2.20;;;1.70;;
65971;SDS011;52726;48.852;9.152;2022-11-20T05:18:03;2.58;;;1.67;;
65971;SDS011;52726;48.852;9.152;2022-11-20T05:20:28;2.15;;;1.70;;
65971;SDS011;52726;48.852;9.152;2022-11-20T05:22:56;3.60;;;1.73;;
65971;SDS011;52726;48.852;9.152;2022-11-20T05:25:22;2.58;;;2.15;;
65971;SDS011;52726;48.852;9.152;2022-11-20T05:27:47;5.88;;;1.70;;
65971;SDS011;52726;48.852;9.152;2022-11-20T05:30:13;1.75;;;1.60;;
65971;SDS011;52726;48.852;9.152;2022-11-20T05:32:38;1.67;;;1.58;;
65971;SDS011;52726;48.852;9.152;2022-11-20T05:35:04;3.33;;;1.90;;
65971;SDS011;52726;48.852;9.152;2022-11-20T05:37:29;2.15;;;1.77;;
65971;SDS011;52726;48.852;9.152;2022-11-20T05:39:55;4.00;;;1.85;;
65971;SDS011;52726;48.852;9.152;2022-11-20T05:42:20;2.58;;;2.38;;
65971;SDS011;52726;48.852;9.152;2022-11-20T05:44:57;1.60;;;1.50;;
65971;SDS011;52726;48.852;9.152;2022-11-20T05:47:24;2.30;;;1.80;;
65971;SDS011;52726;48.852;9.152;2022-11-20T05:49:49;1.73;;;1.55;;
65971;SDS011;52726;48.852;9.152;2022-11-20T05:52:15;2.90;;;1.60;;
65971;SDS011;52726;48.852;9.152;2022-11-20T05:54:40;3.28;;;1.85;;
65971;SDS011;52726;48.852;9.152;2022-11-20T05:57:05;2.17;;;1.90;;
65971;SDS011;52726;48.852;9.152;2022-11-20T05:59:31;3.47;;;1.52;;
65971;SDS011;52726;48.852;9.152;2022-11-20T06:01:56;1.60;;;1.50;;
65971;SDS011;52726;48.852;9.152;2022-11-20T06:04:21;3.85;;;1.80;;
65971;SDS011;52726;48.852;9.152;2022-11-20T06:06:47;4.55;;;2.00;;
65971;SDS011;52726;48.852;9.152;2022-11-20T06:09:12;1.90;;;1.75;;
65971;SDS011;52726;48.852;9.152;2022-11-20T06:11:37;4.88;;;2.10;;
65971;SDS011;52726;48.852;9.152;2022-11-20T06:14:03;4.28;;;1.90;;
65971;SDS011;52726;48.852;9.152;2022-11-20T06:16:28;2.28;;;2.00;;
65971;SDS011;52726;48.852;9.152;2022-11-20T06:18:54;2.50;;;1.90;;
65971;SDS011;52726;48.852;9.152;2022-11-20T06:21:20;2.20;;;1.70;;
65971;SDS011;52726;48.852;9.152;2022-11-20T06:23:47;3.63;;;2.00;;
65971;SDS011;52726;48.852;9.152;2022-11-20T06:26:17;4.13;;;2.13;;
65971;SDS011;52726;48.852;9.152;2022-11-20T06:28:45;1.42;;;1.20;;
65971;SDS011;52726;48.852;9.152;2022-11-20T06:31:12;2.10;;;1.92;;
65971;SDS011;52726;48.852;9.152;2022-11-20T06:33:39;2.45;;;2.00;;
65971;SDS011;52726;48.852;9.152;2022-11-20T06:36:04;2.25;;;2.05;;
65971;SDS011;52726;48.852;9.152;2022-11-20T06:38:30;1.63;;;1.38;;
65971;SDS011;52726;48.852;9.152;2022-11-20T06:40:56;1.83;;;1.52;;
65971;SDS011;52726;48.852;9.152;2022-11-20T06:43:21;2.60;;;1.73;;
65971;SDS011;52726;48.852;9.152;2022-11-20T06:45:54;3.17;;;2.35;;
65971;SDS011;52726;48.852;9.152;2022-11-20T06:48:21;2.05;;;1.50;;
65971;SDS011;52726;48.852;9.152;2022-11-20T06:50:47;2.17;;;1.50;;
65971;SDS011;52726;48.852;9.152;2022-11-20T06:53:12;2.25;;;1.63;;
65971;SDS011;52726;48.852;9.152;2022-11-20T06:55:41;2.17;;;1.60;;
65971;SDS011;52726;48.852;9.152;2022-11-20T06:58:11;1.45;;;1.35;;
65971;SDS011;52726;48.852;9.152;2022-11-20T07:00:37;1.50;;;1.40;;
65971;SDS011;52726;48.852;9.152;2022-11-20T07:03:03;1.20;;;1.10;;
65971;SDS011;52726;48.852;9.152;2022-11-20T07:05:29;2.40;;;1.60;;
65971;SDS011;52726;48.852;9.152;2022-11-20T07:07:55;1.20;;;1.17;;
65971;SDS011;52726;48.852;9.152;2022-11-20T07:10:21;1.25;;;1.20;;
65971;SDS011;52726;48.852;9.152;2022-11-20T07:12:50;2.22;;;1.17;;
65971;SDS011;52726;48.852;9.152;2022-11-20T07:15:16;2.40;;;1.55;;
65971;SDS011;52726;48.852;9.152;2022-11-20T07:17:46;1.38;;;1.27;;
65971;SDS011;52726;48.852;9.152;2022-11-20T07:20:11;2.10;;;1.60;;
65971;SDS011;52726;48.852;9.152;2022-11-20T07:22:37;1.50;;;1.40;;
65971;SDS011;52726;48.852;9.152;2022-11-20T07:25:03;1.20;;;1.10;;
65971;SDS011;52726;48.852;9.152;2022-11-20T07:27:29;1.10;;;1.02;;
65971;SDS011;52726;48.852;9.152;2022-11-20T07:29:55;2.25;;;1.17;;
65971;SDS011;52726;48.852;9.152;2022-11-20T07:32:21;2.05;;;1.27;;
65971;SDS011;52726;48.852;9.152;2022-11-20T07:34:47;1.40;;;1.13;;
65971;SDS011;52726;48.852;9.152;2022-11-20T07:37:13;1.13;;;1.02;;
65971;SDS011;52726;48.852;9.152;2022-11-20T07:39:38;2.45;;;1.00;;
65971;SDS011;52726;48.852;9.152;2022-11-20T07:42:05;1.23;;;1.13;;
65971;SDS011;52726;48.852;9.152;2022-11-20T07:44:31;1.40;;;1.30;;
65971;SDS011;52726;48.852;9.152;2022-11-20T07:46:56;4.78;;;1.27;;
65971;SDS011;52726;48.852;9.152;2022-11-20T07:49:21;1.95;;;1.20;;
65971;SDS011;52726;48.852;9.152;2022-11-20T07:51:49;1.65;;;1.33;;
65971;SDS011;52726;48.852;9.152;2022-11-20T07:54:16;1.15;;;1.05;;
65971;SDS011;52726;48.852;9.152;2022-11-20T07:56:41;2.03;;;1.50;;
65971;SDS011;52726;48.852;9.152;2022-11-20T07:59:06;1.40;;;1.30;;
65971;SDS011;52726;48.852;9.152;2022-11-20T08:01:32;1.65;;;1.25;;
65971;SDS011;52726;48.852;9.152;2022-11-20T08:03:57;2.53;;;1.20;;
65971;SDS011;52726;48.852;9.152;2022-11-20T08:06:22;3.40;;;1.30;;
65971;SDS011;52726;48.852;9.152;2022-11-20T08:08:49;2.13;;;1.40;;
65971;SDS011;52726;48.852;9.152;2022-11-20T08:11:15;1.23;;;1.15;;
65971;SDS011;52726;48.852;9.152;2022-11-20T08:13:58;3.92;;;1.33;;
65971;SDS011;52726;48.852;9.152;2022-11-20T08:16:40;1.23;;;1.13;;
65971;SDS011;52726;48.852;9.152;2022-11-20T08:19:10;1.50;;;1.40;;
65971;SDS011;52726;48.852;9.152;2022-11-20T08:21:37;1.48;;;1.13;;
65971;SDS011;52726;48.852;9.152;2022-11-20T08:24:02;4.20;;;1.30;;
65971;SDS011;52726;48.852;9.152;2022-11-20T08:26:28;4.13;;;1.58;;
65971;SDS011;52726;48.852;9.152;2022-11-20T08:28:54;1.92;;;1.20;;
65971;SDS011;52726;48.852;9.152;2022-11-20T08:31:20;1.85;;;1.08;;
65971;SDS011;52726;48.852;9.152;2022-11-20T08:33:46;1.40;;;1.00;;
65971;SDS011;52726;48.852;9.152;2022-11-20T08:36:11;1.27;;;0.98;;
65971;SDS011;52726;48.852;9.152;2022-11-20T08:38:37;1.13;;;1.02;;
65971;SDS011;52726;48.852;9.152;2022-11-20T08:41:03;1.42;;;0.90;;
65971;SDS011;52726;48.852;9.152;2022-11-20T08:43:49;0.60;;;0.60;;
65971;SDS011;52726;48.852;9.152;2022-11-20T08:46:17;1.20;;;0.77;;
65971;SDS011;52726;48.852;9.152;2022-11-20T08:48:43;2.40;;;1.50;;
65971;SDS011;52726;48.852;9.152;2022-11-20T08:51:10;2.75;;;1.00;;
65971;SDS011;52726;48.852;9.152;2022-11-20T08:53:35;1.92;;;0.90;;
65971;SDS011;52726;48.852;9.152;2022-11-20T08:56:01;0.65;;;0.65;;
65971;SDS011;52726;48.852;9.152;2022-11-20T08:58:26;0.77;;;0.77;;
65971;SDS011;52726;48.852;9.152;2022-11-20T09:00:52;1.65;;;1.15;;
65971;SDS011;52726;48.852;9.152;2022-11-20T09:03:17;1.10;;;1.00;;
65971;SDS011;52726;48.852;9.152;2022-11-20T09:05:43;0.80;;;0.80;;
65971;SDS011;52726;48.852;9.152;2022-11-20T09:08:08;0.60;;;0.60;;
65971;SDS011;52726;48.852;9.152;2022-11-20T09:10:34;0.50;;;0.50;;
65971;SDS011;52726;48.852;9.152;2022-11-20T09:12:59;0.63;;;0.63;;
65971;SDS011;52726;48.852;9.152;2022-11-20T09:15:25;0.60;;;0.60;;
65971;SDS011;52726;48.852;9.152;2022-11-20T09:18:00;1.58;;;0.60;;
65971;SDS011;52726;48.852;9.152;2022-11-20T09:20:28;0.70;;;0.70;;
65971;SDS011;52726;48.852;9.152;2022-11-20T09:22:54;0.47;;;0.47;;
65971;SDS011;52726;48.852;9.152;2022-11-20T09:25:20;1.02;;;0.63;;
65971;SDS011;52726;48.852;9.152;2022-11-20T09:27:46;1.80;;;0.68;;
65971;SDS011;52726;48.852;9.152;2022-11-20T09:30:12;0.50;;;0.50;;
65971;SDS011;52726;48.852;9.152;2022-11-20T09:32:39;0.80;;;0.80;;
65971;SDS011;52726;48.852;9.152;2022-11-20T09:35:05;0.60;;;0.60;;
65971;SDS011;52726;48.852;9.152;2022-11-20T09:37:31;0.80;;;0.60;;
65971;SDS011;52726;48.852;9.152;2022-11-20T09:39:56;0.60;;;0.60;;
65971;SDS011;52726;48.852;9.152;2022-11-20T09:45:02;0.70;;;0.70;;
65971;SDS011;52726;48.852;9.152;2022-11-20T09:53:15;0.75;;;0.75;;
65971;SDS011;52726;48.852;9.152;2022-11-20T09:56:02;0.50;;;0.50;;
65971;SDS011;52726;48.852;9.152;2022-11-20T09:58:38;0.60;;;0.60;;
65971;SDS011;52726;48.852;9.152;2022-11-20T10:01:26;1.00;;;0.60;;
65971;SDS011;52726;48.852;9.152;2022-11-20T10:03:56;1.30;;;0.98;;
65971;SDS011;52726;48.852;9.152;2022-11-20T10:09:36;1.02;;;1.02;;
65971;SDS011;52726;48.852;9.152;2022-11-20T10:14:38;0.60;;;0.60;;
65971;SDS011;52726;48.852;9.152;2022-11-20T10:20:14;1.00;;;0.88;;
65971;SDS011;52726;48.852;9.152;2022-11-20T10:25:37;1.48;;;1.20;;
65971;SDS011;52726;48.852;9.152;2022-11-20T10:28:14;1.00;;;1.00;;
65971;SDS011;52726;48.852;9.152;2022-11-20T10:30:46;1.60;;;1.13;;
65971;SDS011;52726;48.852;9.152;2022-11-20T10:33:22;0.90;;;0.90;;
65971;SDS011;52726;48.852;9.152;2022-11-20T10:38:41;3.78;;;0.90;;
65971;SDS011;52726;48.852;9.152;2022-11-20T10:41:29;0.70;;;0.70;;
65971;SDS011;52726;48.852;9.152;2022-11-20T10:46:33;0.70;;;0.70;;
65971;SDS011;52726;48.852;9.152;2022-11-20T10:49:02;0.80;;;0.80;;
65971;SDS011;52726;48.852;9.152;2022-11-20T10:51:37;3.25;;;1.30;;
65971;SDS011;52726;48.852;9.152;2022-11-20T10:57:47;2.33;;;1.10;;
65971;SDS011;52726;48.852;9.152;2022-11-20T11:00:01;2.03;;;1.45;;
65971;SDS011;52726;48.852;9.152;2022-11-20T11:02:43;3.25;;;1.20;;
65971;SDS011;52726;48.852;9.152;2022-11-20T11:07:46;3.40;;;1.20;;
65971;SDS011;52726;48.852;9.152;2022-11-20T11:10:16;1.42;;;1.20;;
65971;SDS011;52726;48.852;9.152;2022-11-20T11:12:44;1.05;;;1.05;;
65971;SDS011;52726;48.852;9.152;2022-11-20T11:15:35;1.38;;;1.27;;
65971;SDS011;52726;48.852;9.152;2022-11-20T11:18:04;2.58;;;1.45;;
65971;SDS011;52726;48.852;9.152;2022-11-20T11:20:30;1.10;;;1.02;;
65971;SDS011;52726;48.852;9.152;2022-11-20T11:22:57;1.17;;;1.10;;
65971;SDS011;52726;48.852;9.152;2022-11-20T11:25:30;1.00;;;1.00;;
65971;SDS011;52726;48.852;9.152;2022-11-20T11:28:18;1.15;;;1.05;;
65971;SDS011;52726;48.852;9.152;2022-11-20T11:30:46;1.60;;;1.15;;
65971;SDS011;52726;48.852;9.152;2022-11-20T11:36:02;2.08;;;1.38;;
65971;SDS011;52726;48.852;9.152;2022-11-20T11:38:42;2.40;;;1.60;;
65971;SDS011;52726;48.852;9.152;2022-11-20T11:41:09;2.13;;;1.50;;
65971;SDS011;52726;48.852;9.152;2022-11-20T11:43:49;2.40;;;1.35;;
65971;SDS011;52726;48.852;9.152;2022-11-20T11:46:36;1.30;;;1.20;;
65971;SDS011;52726;48.852;9.152;2022-11-20T11:54:25;3.05;;;1.55;;
65971;SDS011;52726;48.852;9.152;2022-11-20T11:56:58;3.05;;;1.33;;
65971;SDS011;52726;48.852;9.152;2022-11-20T11:59:27;3.38;;;1.70;;
65971;SDS011;52726;48.852;9.152;2022-11-20T12:02:12;1.08;;;1.08;;
65971;SDS011;52726;48.852;9.152;2022-11-20T12:07:38;1.50;;;1.08;;
65971;SDS011;52726;48.852;9.152;2022-11-20T12:10:13;1.02;;;1.02;;
65971;SDS011;52726;48.852;9.152;2022-11-20T12:13:01;2.38;;;1.00;;
65971;SDS011;52726;48.852;9.152;2022-11-20T12:15:30;1.27;;;1.17;;
65971;SDS011;52726;48.852;9.152;2022-11-20T12:17:56;1.08;;;1.00;;
65971;SDS011;52726;48.852;9.152;2022-11-20T12:20:24;3.85;;;1.30;;
65971;SDS011;52726;48.852;9.152;2022-11-20T12:25:31;3.25;;;1.13;;
65971;SDS011;52726;48.852;9.152;2022-11-20T12:31:13;0.50;;;0.50;;
65971;SDS011;52726;48.852;9.152;2022-11-20T12:33:47;1.23;;;1.00;;
65971;SDS011;52726;48.852;9.152;2022-11-20T12:36:28;2.17;;;0.70;;
65971;SDS011;52726;48.852;9.152;2022-11-20T12:39:31;1.20;;;0.77;;
65971;SDS011;52726;48.852;9.152;2022-11-20T12:42:05;1.15;;;0.80;;
65971;SDS011;52726;48.852;9.152;2022-11-20T12:51:02;1.50;;;0.63;;
65971;SDS011;52726;48.852;9.152;2022-11-20T12:59:47;1.30;;;0.80;;
65971;SDS011;52726;48.852;9.152;2022-11-20T13:07:57;5.10;;;1.33;;
65971;SDS011;52726;48.852;9.152;2022-11-20T13:10:37;4.55;;;0.77;;
65971;SDS011;52726;48.852;9.152;2022-11-20T13:13:13;0.70;;;0.70;;
65971;SDS011;52726;48.852;9.152;2022-11-20T13:15:47;0.57;;;0.57;;
65971;SDS011;52726;48.852;9.152;2022-11-20T13:18:15;0.63;;;0.63;;
65971;SDS011;52726;48.852;9.152;2022-11-20T13:20:44;1.98;;;0.85;;
65971;SDS011;52726;48.852;9.152;2022-11-20T13:23:10;1.42;;;0.80;;
65971;SDS011;52726;48.852;9.152;2022-11-20T13:25:39;1.95;;;0.95;;
65971;SDS011;52726;48.852;9.152;2022-11-20T13:30:37;0.83;;;0.80;;
65971;SDS011;52726;48.852;9.152;2022-11-20T13:33:25;0.75;;;0.73;;
65971;SDS011;52726;48.852;9.152;2022-11-20T13:35:55;3.20;;;0.60;;
65971;SDS011;52726;48.852;9.152;2022-11-20T13:38:27;0.75;;;0.55;;
65971;SDS011;52726;48.852;9.152;2022-11-20T13:40:54;3.38;;;0.60;;
65971;SDS011;52726;48.852;9.152;2022-11-20T13:43:35;1.23;;;0.60;;
65971;SDS011;52726;48.852;9.152;2022-11-20T13:46:07;2.25;;;0.77;;
65971;SDS011;52726;48.852;9.152;2022-11-20T13:48:38;2.45;;;1.00;;
65971;SDS011;52726;48.852;9.152;2022-11-20T14:02:20;1.08;;;0.70;;
65971;SDS011;52726;48.852;9.152;2022-11-20T14:04:47;0.60;;;0.60;;
65971;SDS011;52726;48.852;9.152;2022-11-20T14:07:15;2.05;;;0.90;;
65971;SDS011;52726;48.852;9.152;2022-11-20T14:12:46;1.05;;;0.80;;
65971;SDS011;52726;48.852;9.152;2022-11-20T14:15:23;0.90;;;0.85;;
65971;SDS011;52726;48.852;9.152;2022-11-20T14:17:59;0.57;;;0.57;;
65971;SDS011;52726;48.852;9.152;2022-11-20T14:20:26;0.77;;;0.77;;
65971;SDS011;52726;48.852;9.152;2022-11-20T14:22:53;1.40;;;1.00;;
65971;SDS011;52726;48.852;9.152;2022-11-20T14:25:23;1.67;;;0.95;;
65971;SDS011;52726;48.852;9.152;2022-11-20T14:27:58;1.15;;;0.90;;
65971;SDS011;52726;48.852;9.152;2022-11-20T14:30:35;0.70;;;0.70;;
65971;SDS011;52726;48.852;9.152;2022-11-20T14:33:03;2.72;;;1.02;;
65971;SDS011;52726;48.852;9.152;2022-11-20T14:35:30;1.48;;;0.82;;
65971;SDS011;52726;48.852;9.152;2022-11-20T14:37:59;0.82;;;0.82;;
65971;SDS011;52726;48.852;9.152;2022-11-20T14:40:27;0.60;;;0.60;;
65971;SDS011;52726;48.852;9.152;2022-11-20T14:42:55;0.77;;;0.63;;
65971;SDS011;52726;48.852;9.152;2022-11-20T14:45:22;0.70;;;0.70;;
65971;SDS011;52726;48.852;9.152;2022-11-20T14:47:48;0.98;;;0.98;;
65971;SDS011;52726;48.852;9.152;2022-11-20T14:50:19;1.98;;;1.00;;
65971;SDS011;52726;48.852;9.152;2022-11-20T14:52:51;1.00;;;1.00;;
65971;SDS011;52726;48.852;9.152;2022-11-20T14:55:28;4.15;;;2.45;;
65971;SDS011;52726;48.852;9.152;2022-11-20T14:57:56;2.78;;;1.80;;
65971;SDS011;52726;48.852;9.152;2022-11-20T15:00:24;4.20;;;1.15;;
65971;SDS011;52726;48.852;9.152;2022-11-20T15:02:50;1.08;;;0.90;;
65971;SDS011;52726;48.852;9.152;2022-11-20T15:05:18;0.65;;;0.55;;
65971;SDS011;52726;48.852;9.152;2022-11-20T15:07:46;3.33;;;1.27;;
65971;SDS011;52726;48.852;9.152;2022-11-20T15:10:24;1.20;;;1.10;;
65971;SDS011;52726;48.852;9.152;2022-11-20T15:12:51;1.40;;;1.15;;
65971;SDS011;52726;48.852;9.152;2022-11-20T15:15:30;1.20;;;1.10;;
65971;SDS011;52726;48.852;9.152;2022-11-20T15:17:59;2.08;;;1.10;;
65971;SDS011;52726;48.852;9.152;2022-11-20T15:20:26;5.93;;;1.10;;
65971;SDS011;52726;48.852;9.152;2022-11-20T15:22:55;2.50;;;0.93;;
65971;SDS011;52726;48.852;9.152;2022-11-20T15:25:20;5.90;;;1.20;;
65971;SDS011;52726;48.852;9.152;2022-11-20T15:27:46;3.50;;;0.88;;
65971;SDS011;52726;48.852;9.152;2022-11-20T15:30:16;3.90;;;1.33;;
65971;SDS011;52726;48.852;9.152;2022-11-20T15:32:43;2.03;;;0.93;;
65971;SDS011;52726;48.852;9.152;2022-11-20T15:35:09;2.17;;;1.33;;
65971;SDS011;52726;48.852;9.152;2022-11-20T15:37:36;1.08;;;1.00;;
65971;SDS011;52726;48.852;9.152;2022-11-20T15:40:02;1.23;;;0.73;;
65971;SDS011;52726;48.852;9.152;2022-11-20T15:42:28;4.57;;;1.23;;
65971;SDS011;52726;48.852;9.152;2022-11-20T15:44:53;0.90;;;0.90;;
65971;SDS011;52726;48.852;9.152;2022-11-20T15:47:19;2.42;;;1.00;;
65971;SDS011;52726;48.852;9.152;2022-11-20T15:49:50;5.72;;;1.30;;
65971;SDS011;52726;48.852;9.152;2022-11-20T15:52:15;1.40;;;1.30;;
65971;SDS011;52726;48.852;9.152;2022-11-20T15:54:41;1.95;;;1.05;;
65971;SDS011;52726;48.852;9.152;2022-11-20T15:57:06;3.80;;;1.27;;
65971;SDS011;52726;48.852;9.152;2022-11-20T15:59:32;1.58;;;1.10;;
65971;SDS011;52726;48.852;9.152;2022-11-20T16:01:57;3.20;;;1.63;;
65971;SDS011;52726;48.852;9.152;2022-11-20T16:04:23;5.65;;;1.63;;
65971;SDS011;52726;48.852;9.152;2022-11-20T16:06:48;2.88;;;1.42;;
65971;SDS011;52726;48.852;9.152;2022-11-20T16:09:14;2.20;;;1.33;;
65971;SDS011;52726;48.852;9.152;2022-11-20T16:11:39;1.58;;;1.48;;
65971;SDS011;52726;48.852;9.152;2022-11-20T16:14:05;2.40;;;1.55;;
65971;SDS011;52726;48.852;9.152;2022-11-20T16:16:49;1.92;;;1.33;;
65971;SDS011;52726;48.852;9.152;2022-11-20T16:19:16;4.18;;;1.50;;
65971;SDS011;52726;48.852;9.152;2022-11-20T16:21:43;1.23;;;1.13;;